Time;durP1;ratioP1;P1;durP2;ratioP2;P2;SDS_P1;SDS_P2;PMS_P1;PMS_P2;Temp;Humidity;BMP_temperature;BMP_pressure;BME280_temperature;BME280_humidity;BME280_pressure;Samples;Min_cycle;Max_cycle;Signal;HPM_P1;HPM_P2
2021/10/24 00:00:28;;;;;;;9.45;5.18;;;;;;;1.99;100.00;97055.13;1028653;28;20073;-51
2021/10/24 00:01:00;;;;;;;9.23;5.35;;;;;;;1.99;100.00;97058.59;1024956;29;20069;-50
2021/10/24 00:01:31;;;;;;;12.43;6.22;;;;;;;1.98;100.00;97053.47;1025279;28;20019;-51
2021/10/24 00:02:02;;;;;;;11.18;5.70;;;;;;;1.98;100.00;97049.13;1030037;28;20416;-51
2021/10/24 00:02:33;;;;;;;8.38;5.40;;;;;;;1.99;100.00;97047.38;1036863;28;20782;-50
2021/10/24 00:03:03;;;;;;;9.32;5.70;;;;;;;1.99;100.00;97049.97;1036762;28;20018;-51
2021/10/24 00:03:34;;;;;;;8.68;5.63;;;;;;;1.99;100.00;97055.13;1020844;29;20116;-50
2021/10/24 00:04:05;;;;;;;11.85;5.50;;;;;;;1.99;100.00;97053.44;1024706;29;20015;-51
2021/10/24 00:04:36;;;;;;;11.35;5.75;;;;;;;2.00;100.00;97052.53;1028637;28;20269;-50
2021/10/24 00:05:07;;;;;;;9.60;5.40;;;;;;;2.01;100.00;97053.38;1033039;28;20101;-51
2021/10/24 00:05:37;;;;;;;10.18;6.10;;;;;;;1.99;100.00;97050.84;1037221;28;20041;-51
2021/10/24 00:06:08;;;;;;;13.00;5.68;;;;;;;1.96;100.00;97047.47;1040901;28;20511;-51
2021/10/24 00:06:39;;;;;;;10.77;5.38;;;;;;;1.96;100.00;97050.06;1037044;28;20053;-51
2021/10/24 00:07:10;;;;;;;10.18;5.40;;;;;;;1.98;100.00;97053.47;1033102;28;20081;-50
2021/10/24 00:07:40;;;;;;;13.77;5.70;;;;;;;1.99;100.00;97048.25;1033194;28;20053;-51
2021/10/24 00:08:11;;;;;;;12.10;5.72;;;;;;;1.98;100.00;97050.88;1033178;28;20022;-51
2021/10/24 00:08:41;;;;;;;9.50;5.35;;;;;;;1.98;100.00;97046.53;1028950;28;20050;-50
2021/10/24 00:09:12;;;;;;;14.20;5.70;;;;;;;1.97;100.00;97060.38;1028846;28;20039;-50
2021/10/24 00:09:43;;;;;;;12.23;6.25;;;;;;;1.96;100.00;97053.47;1032898;28;20133;-51
2021/10/24 00:10:13;;;;;;;10.52;5.18;;;;;;;1.92;100.00;97054.41;1028724;28;20023;-50
2021/10/24 00:10:44;;;;;;;9.30;5.28;;;;;;;1.92;100.00;97052.69;1024864;29;20023;-50
2021/10/24 00:11:15;;;;;;;11.52;5.30;;;;;;;1.93;100.00;97053.53;1028794;28;20098;-51
2021/10/24 00:11:45;;;;;;;10.68;5.00;;;;;;;1.92;100.00;97054.41;1025028;29;20078;-51
2021/10/24 00:12:17;;;;;;;6.45;4.35;;;;;;;1.92;100.00;97052.69;1036693;28;20022;-51
2021/10/24 00:12:48;;;;;;;10.77;5.63;;;;;;;1.90;100.00;97054.44;1028780;28;20031;-51
2021/10/24 00:13:18;;;;;;;13.25;5.63;;;;;;;1.90;100.00;97057.03;1036964;28;20309;-50
2021/10/24 00:13:49;;;;;;;9.88;6.07;;;;;;;1.90;100.00;97051.00;1036755;28;20101;-51
2021/10/24 00:14:20;;;;;;;10.02;4.93;;;;;;;1.90;100.00;97051.84;1036874;28;20074;-50
2021/10/24 00:14:51;;;;;;;11.77;6.00;;;;;;;1.87;100.00;97046.72;1036996;28;20022;-52
2021/10/24 00:15:21;;;;;;;11.18;5.15;;;;;;;1.87;100.00;97051.06;1037017;28;20451;-51
2021/10/24 00:15:52;;;;;;;9.60;5.68;;;;;;;1.88;100.00;97051.03;1032643;28;20127;-50
2021/10/24 00:16:23;;;;;;;11.90;5.30;;;;;;;1.89;100.00;97049.28;1024533;29;20057;-50
2021/10/24 00:16:53;;;;;;;10.00;5.50;;;;;;;1.90;100.00;97051.84;1024759;29;20389;-50
2021/10/24 00:17:24;;;;;;;11.40;5.90;;;;;;;1.89;100.00;97052.72;1028145;28;20029;-50
2021/10/24 00:17:55;;;;;;;9.85;5.72;;;;;;;1.94;100.00;97050.91;1032405;28;20014;-51
2021/10/24 00:18:26;;;;;;;13.20;5.43;;;;;;;1.92;100.00;97052.69;1028869;28;20033;-50
2021/10/24 00:18:57;;;;;;;9.68;4.80;;;;;;;1.92;100.00;97057.84;1029129;28;20023;-50
2021/10/24 00:19:28;;;;;;;9.30;5.25;;;;;;;1.93;100.00;97054.41;1033446;28;20711;-51
2021/10/24 00:19:59;;;;;;;10.13;5.30;;;;;;;1.94;100.00;97060.41;1037050;28;20105;-51
2021/10/24 00:20:30;;;;;;;10.75;5.97;;;;;;;1.94;100.00;97055.25;1041024;28;20248;-50
2021/10/24 00:21:00;;;;;;;11.73;5.15;;;;;;;1.93;100.00;97062.16;1036747;28;20271;-50
2021/10/24 00:21:31;;;;;;;10.18;5.38;;;;;;;1.91;100.00;97053.53;1037196;28;20021;-51
2021/10/24 00:22:03;;;;;;;9.25;5.30;;;;;;;1.92;100.00;97049.25;1032882;28;20113;-50
2021/10/24 00:22:34;;;;;;;12.48;6.97;;;;;;;1.93;100.00;97053.53;1033261;28;20014;-50
2021/10/24 00:23:05;;;;;;;12.90;5.78;;;;;;;1.94;100.00;97052.66;1036739;28;20715;-50
2021/10/24 00:23:35;;;;;;;9.68;5.13;;;;;;;1.92;100.00;97050.09;1037290;28;20084;-51
2021/10/24 00:24:06;;;;;;;9.57;5.10;;;;;;;1.92;100.00;97050.09;1041216;28;20010;-51
2021/10/24 00:24:37;;;;;;;9.73;5.30;;;;;;;1.92;100.00;97051.84;1040881;28;20041;-51
2021/10/24 00:25:08;;;;;;;13.40;6.30;;;;;;;1.91;100.00;97050.97;1036842;28;20022;-52
2021/10/24 00:25:39;;;;;;;12.23;5.57;;;;;;;1.90;100.00;97051.84;1037060;28;20388;-51
2021/10/24 00:26:09;;;;;;;12.35;5.90;;;;;;;1.89;100.00;97049.28;1032842;28;20264;-51
2021/10/24 00:26:40;;;;;;;12.48;5.85;;;;;;;1.88;100.00;97051.03;1029050;28;20022;-51
2021/10/24 00:27:11;;;;;;;10.85;5.65;;;;;;;1.89;100.00;97046.72;1028795;28;20019;-51
2021/10/24 00:27:42;;;;;;;8.77;5.47;;;;;;;1.90;100.00;97053.59;1024936;28;20439;-50
2021/10/24 00:28:13;;;;;;;11.82;5.63;;;;;;;1.91;100.00;97050.97;1025315;28;20259;-51
2021/10/24 00:28:44;;;;;;;14.40;6.60;;;;;;;1.89;100.00;97055.31;1033106;28;20372;-51
2021/10/24 00:29:14;;;;;;;13.68;6.30;;;;;;;1.87;100.00;97048.47;1037091;28;20344;-51
2021/10/24 00:29:45;;;;;;;10.73;5.75;;;;;;;1.85;100.00;97053.66;1041139;28;20105;-51
2021/10/24 00:30:16;;;;;;;12.82;5.72;;;;;;;1.85;100.00;97050.22;1037025;28;20022;-51
2021/10/24 00:30:47;;;;;;;11.50;5.90;;;;;;;1.83;100.00;97047.69;1032796;28;20444;-50
2021/10/24 00:31:17;;;;;;;10.55;5.40;;;;;;;1.85;100.00;97055.41;1028720;28;20011;-50
2021/10/24 00:31:48;;;;;;;13.52;6.07;;;;;;;1.84;100.00;97049.38;1028956;28;20262;-51
2021/10/24 00:32:19;;;;;;;10.93;5.57;;;;;;;1.83;100.00;97052.00;1029312;28;20058;-51
2021/10/24 00:32:50;;;;;;;14.57;6.80;;;;;;;1.81;100.00;97054.59;1033104;28;20026;-50
2021/10/24 00:33:22;;;;;;;13.52;5.93;;;;;;;1.79;100.00;97048.63;1032763;28;20018;-51
2021/10/24 00:33:53;;;;;;;13.88;6.45;;;;;;;1.78;100.00;97048.63;1036859;28;20260;-51
2021/10/24 00:34:24;;;;;;;10.15;5.35;;;;;;;1.78;100.00;97048.63;1028584;28;20266;-51
2021/10/24 00:34:54;;;;;;;11.20;6.38;;;;;;;1.79;100.00;97047.78;1037042;28;20146;-50
2021/10/24 00:35:25;;;;;;;14.48;5.72;;;;;;;1.75;100.00;97047.81;1036956;28;20018;-52
2021/10/24 00:35:56;;;;;;;10.35;5.65;;;;;;;1.76;100.00;97046.06;1036859;28;20018;-50
2021/10/24 00:36:27;;;;;;;12.57;5.43;;;;;;;1.75;100.00;97054.72;1037149;28;20024;-50
2021/10/24 00:36:58;;;;;;;10.50;5.97;;;;;;;1.72;100.00;97052.19;1037192;28;20317;-51
2021/10/24 00:37:28;;;;;;;10.18;6.18;;;;;;;1.75;100.00;97052.13;1037141;28;20395;-52
2021/10/24 00:37:59;;;;;;;8.23;5.35;;;;;;;1.76;100.00;97048.66;1036863;28;20025;-51
2021/10/24 00:38:30;;;;;;;11.57;5.72;;;;;;;1.76;100.00;97051.25;1032653;28;20014;-51
2021/10/24 00:39:01;;;;;;;10.30;6.00;;;;;;;1.77;100.00;97044.38;1036889;28;20256;-50
2021/10/24 00:39:31;;;;;;;12.27;6.25;;;;;;;1.77;100.00;97047.78;1032967;28;20018;-51
2021/10/24 00:40:03;;;;;;;12.23;6.78;;;;;;;1.77;100.00;97037.47;1037089;28;20014;-50
2021/10/24 00:40:34;;;;;;;11.35;5.93;;;;;;;1.78;100.00;97054.66;1040905;28;20026;-50
2021/10/24 00:41:06;;;;;;;9.27;5.78;;;;;;;1.78;100.00;97044.31;1041279;28;20260;-50
2021/10/24 00:41:36;;;;;;;10.25;5.95;;;;;;;1.77;100.00;97044.38;1044935;28;20017;-51
2021/10/24 00:42:07;;;;;;;10.93;5.70;;;;;;;1.75;100.00;97041.81;1044651;28;20258;-51
2021/10/24 00:42:45;;;;;;;7.97;5.50;;;;;;;1.77;100.00;97042.63;1032483;28;20026;-51
2021/10/24 00:43:16;;;;;;;9.63;5.03;;;;;;;1.76;100.00;97046.06;1032737;28;20030;-50
2021/10/24 00:43:47;;;;;;;8.45;5.63;;;;;;;1.74;100.00;97043.50;1024448;29;20263;-50
2021/10/24 00:44:26;;;;;;;11.35;5.85;;;;;;;1.76;100.00;97046.06;1025364;28;20083;-52
2021/10/24 00:44:57;;;;;;;12.93;6.38;;;;;;;1.75;100.00;97039.22;1028978;28;20043;-52
2021/10/24 00:45:28;;;;;;;12.63;5.88;;;;;;;1.74;100.00;97043.50;1031333;28;20351;-50
2021/10/24 00:45:59;;;;;;;13.30;5.90;;;;;;;1.73;100.00;97043.56;1038326;28;20096;-52
2021/10/24 00:46:29;;;;;;;15.95;6.72;;;;;;;1.72;100.00;97047.00;1036536;28;20766;-51
2021/10/24 00:47:01;;;;;;;9.35;5.28;;;;;;;1.71;100.00;97047.91;1036932;28;20105;-50
2021/10/24 00:47:32;;;;;;;10.38;5.35;;;;;;;1.68;100.00;97043.63;1036829;28;20014;-50
2021/10/24 00:48:03;;;;;;;8.63;5.20;;;;;;;1.69;100.00;97039.31;1033161;28;20265;-51
2021/10/24 00:48:33;;;;;;;11.73;5.75;;;;;;;1.69;100.00;97047.94;1037133;28;20786;-51
2021/10/24 00:49:04;;;;;;;11.45;6.13;;;;;;;1.69;100.00;97042.75;1036830;28;20425;-52
2021/10/24 00:49:35;;;;;;;11.73;5.53;;;;;;;1.67;100.00;97041.94;1036909;28;20034;-49
2021/10/24 00:50:05;;;;;;;9.98;5.38;;;;;;;1.66;100.00;97039.38;1041171;28;20075;-50
2021/10/24 00:50:37;;;;;;;11.70;6.97;;;;;;;1.66;100.00;97034.22;1041102;28;20104;-49
2021/10/24 00:51:08;;;;;;;12.32;5.85;;;;;;;1.60;100.00;97040.34;1040810;28;20021;-48
2021/10/24 00:51:38;;;;;;;9.85;6.10;;;;;;;1.63;100.00;97035.09;1040752;28;20267;-50
2021/10/24 00:52:10;;;;;;;11.43;6.45;;;;;;;1.63;100.00;97037.69;1032614;28;20337;-49
2021/10/24 00:52:42;;;;;;;13.50;5.53;;;;;;;1.63;100.00;97036.84;1029276;28;20470;-48
2021/10/24 00:53:14;;;;;;;12.88;5.93;;;;;;;1.64;100.00;97038.56;1028437;28;20821;-49
2021/10/24 00:53:45;;;;;;;10.85;6.38;;;;;;;1.62;100.00;97037.72;1025314;28;20281;-49
2021/10/24 00:54:18;;;;;;;10.60;5.63;;;;;;;1.60;100.00;97037.75;1028712;28;20341;-48
2021/10/24 00:54:49;;;;;;;11.73;5.60;;;;;;;1.59;100.00;97041.19;1032873;28;20018;-50
2021/10/24 00:55:22;;;;;;;11.50;5.97;;;;;;;1.59;100.00;97038.63;1036948;28;20292;-48
2021/10/24 00:55:53;;;;;;;12.07;5.93;;;;;;;1.61;100.00;97038.59;1032921;28;20072;-48
2021/10/24 00:56:23;;;;;;;14.68;6.18;;;;;;;1.63;100.00;97034.25;1033988;28;20277;-50
2021/10/24 00:56:54;;;;;;;8.25;5.78;;;;;;;1.62;100.00;97035.16;1036748;28;20686;-48
2021/10/24 00:57:25;;;;;;;10.27;5.68;;;;;;;1.63;100.00;97037.69;1036901;28;20017;-48
2021/10/24 00:57:56;;;;;;;12.80;5.93;;;;;;;1.63;100.00;97036.84;1040812;28;20271;-48
2021/10/24 00:58:26;;;;;;;14.63;6.45;;;;;;;1.63;100.00;97034.25;1036964;28;20018;-48
2021/10/24 00:58:57;;;;;;;10.18;6.13;;;;;;;1.61;100.00;97031.69;1028814;28;20019;-50
2021/10/24 00:59:28;;;;;;;10.60;5.93;;;;;;;1.61;100.00;97026.53;1032943;28;20476;-48
2021/10/24 01:00:01;;;;;;;11.57;5.78;;;;;;;1.64;100.00;97029.06;1033101;28;20261;-48
2021/10/24 01:00:32;;;;;;;8.75;5.88;;;;;;;1.67;100.00;97029.03;1033019;28;20022;-47
2021/10/24 01:01:03;;;;;;;10.98;5.57;;;;;;;1.63;100.00;97024.75;1037412;28;20269;-49
2021/10/24 01:01:34;;;;;;;12.82;5.28;;;;;;;1.64;100.00;97030.81;1032687;28;20352;-49
2021/10/24 01:02:05;;;;;;;9.73;5.30;;;;;;;1.64;100.00;97026.47;1028991;28;20029;-49
2021/10/24 01:02:35;;;;;;;9.85;5.05;;;;;;;1.64;100.00;97023.91;1028733;28;20272;-49
2021/10/24 01:03:06;;;;;;;10.23;5.45;;;;;;;1.65;100.00;97028.19;1024838;28;20031;-50
2021/10/24 01:03:37;;;;;;;11.48;5.45;;;;;;;1.62;100.00;97025.66;1028827;28;20077;-49
2021/10/24 01:04:08;;;;;;;9.85;5.75;;;;;;;1.60;100.00;97030.00;1032628;28;20050;-48
2021/10/24 01:04:40;;;;;;;10.02;5.80;;;;;;;1.59;100.00;97030.88;1032742;28;20261;-49
2021/10/24 01:05:12;;;;;;;12.70;5.95;;;;;;;1.58;100.00;97030.88;1029130;28;20029;-49
2021/10/24 01:05:42;;;;;;;13.10;5.97;;;;;;;1.56;100.00;97033.53;1029283;28;20270;-49
2021/10/24 01:06:14;;;;;;;12.30;6.38;;;;;;;1.54;100.00;97027.53;1033042;28;20707;-48
2021/10/24 01:06:46;;;;;;;10.30;5.63;;;;;;;1.51;100.00;97028.41;1032529;28;20527;-48
2021/10/24 01:07:17;;;;;;;10.82;5.82;;;;;;;1.50;100.00;97031.03;1036776;28;20757;-49
2021/10/24 01:07:49;;;;;;;13.45;6.10;;;;;;;1.49;100.00;97029.34;1032852;28;20329;-50
2021/10/24 01:08:19;;;;;;;10.35;6.00;;;;;;;1.46;100.00;97022.47;1032746;28;20336;-49
2021/10/24 01:08:50;;;;;;;8.25;5.53;;;;;;;1.44;100.00;97019.06;1033390;28;20865;-50
2021/10/24 01:09:22;;;;;;;10.32;5.88;;;;;;;1.45;100.00;97027.69;1028983;28;20072;-48
2021/10/24 01:09:53;;;;;;;12.10;5.90;;;;;;;1.45;100.00;97035.44;1028834;28;20393;-49
2021/10/24 01:10:24;;;;;;;13.45;6.47;;;;;;;1.43;100.00;97027.72;1024602;29;20394;-49
2021/10/24 01:10:55;;;;;;;11.55;6.43;;;;;;;1.42;100.00;97027.72;1033078;28;20029;-49
2021/10/24 01:11:27;;;;;;;14.75;5.95;;;;;;;1.41;100.00;97026.00;1028598;28;20054;-48
2021/10/24 01:11:58;;;;;;;9.73;6.30;;;;;;;1.38;100.00;97026.09;1032672;28;20095;-49
2021/10/24 01:12:28;;;;;;;13.38;6.25;;;;;;;1.35;100.00;97019.22;1033001;28;20257;-50
2021/10/24 01:12:59;;;;;;;11.90;5.95;;;;;;;1.33;100.00;97027.03;1033213;28;20018;-48
2021/10/24 01:13:32;;;;;;;13.05;5.80;;;;;;;1.34;100.00;97020.13;1032711;28;20027;-48
2021/10/24 01:14:03;;;;;;;11.88;6.38;;;;;;;1.34;100.00;97028.72;1033073;28;20022;-48
2021/10/24 01:14:34;;;;;;;10.75;6.10;;;;;;;1.33;100.00;97021.84;1029230;28;20282;-49
2021/10/24 01:15:05;;;;;;;16.23;6.18;;;;;;;1.35;100.00;97022.69;1033069;28;20281;-48
2021/10/24 01:15:36;;;;;;;10.93;6.22;;;;;;;1.34;100.00;97023.53;1036714;28;20018;-50
2021/10/24 01:16:11;;;;;;;9.77;5.80;;;;;;;1.35;100.00;97024.38;1036908;28;20288;-49
2021/10/24 01:16:42;;;;;;;8.35;5.65;;;;;;;1.33;100.00;97018.41;1036817;28;20029;-49
2021/10/24 01:17:13;;;;;;;9.02;6.25;;;;;;;1.35;100.00;97017.50;1036730;28;20268;-50
2021/10/24 01:17:44;;;;;;;13.43;5.88;;;;;;;1.32;100.00;97017.56;1037002;28;20279;-49
2021/10/24 01:18:14;;;;;;;13.15;6.30;;;;;;;1.31;100.00;97026.19;1037308;28;20101;-49
2021/10/24 01:18:45;;;;;;;11.90;6.22;;;;;;;1.31;100.00;97021.03;1036494;28;20100;-49
2021/10/24 01:19:17;;;;;;;11.38;6.10;;;;;;;1.29;100.00;97015.00;1032566;28;20434;-49
2021/10/24 01:19:48;;;;;;;11.07;6.30;;;;;;;1.29;100.00;97016.75;1028789;28;20027;-49
2021/10/24 01:20:21;;;;;;;11.60;6.15;;;;;;;1.29;100.00;97022.75;1024997;28;20355;-47
2021/10/24 01:20:52;;;;;;;16.65;6.47;;;;;;;1.31;100.00;97015.00;1029427;28;20019;-48
2021/10/24 01:21:23;;;;;;;9.13;5.53;;;;;;;1.30;100.00;97014.16;1029284;28;20301;-48
2021/10/24 01:21:54;;;;;;;9.68;5.38;;;;;;;1.28;100.00;97009.91;1028780;28;20266;-48
2021/10/24 01:22:24;;;;;;;10.57;6.13;;;;;;;1.30;100.00;97014.16;1028680;28;20098;-49
2021/10/24 01:22:55;;;;;;;8.77;5.30;;;;;;;1.31;100.00;97017.56;1032308;28;20492;-48
2021/10/24 01:23:26;;;;;;;12.80;5.93;;;;;;;1.30;100.00;97009.00;1028591;28;20106;-48
2021/10/24 01:23:57;;;;;;;10.30;5.70;;;;;;;1.29;100.00;97016.75;1024763;29;20016;-48
2021/10/24 01:24:28;;;;;;;9.02;5.10;;;;;;;1.27;100.00;97010.75;1028629;28;20027;-48
2021/10/24 01:24:59;;;;;;;14.02;6.10;;;;;;;1.27;100.00;97013.34;1033219;28;20014;-48
2021/10/24 01:25:30;;;;;;;12.05;5.82;;;;;;;1.26;100.00;97014.22;1032748;28;20345;-49
2021/10/24 01:26:01;;;;;;;13.80;6.03;;;;;;;1.24;100.00;97018.53;1028513;28;20424;-50
2021/10/24 01:26:34;;;;;;;13.43;6.30;;;;;;;1.24;100.00;97015.97;1028651;28;20018;-49
2021/10/24 01:27:05;;;;;;;9.38;5.82;;;;;;;1.22;100.00;97012.56;1028642;28;20082;-50
2021/10/24 01:27:36;;;;;;;10.25;6.45;;;;;;;1.22;100.00;97012.56;1032447;28;20273;-49
2021/10/24 01:28:08;;;;;;;10.50;6.80;;;;;;;1.21;100.00;97010.88;1032736;28;20500;-49
2021/10/24 01:28:39;;;;;;;12.55;6.10;;;;;;;1.21;100.00;97011.72;1033248;28;20414;-48
2021/10/24 01:29:10;;;;;;;12.88;6.20;;;;;;;1.23;100.00;97016.84;1029184;28;20262;-48
2021/10/24 01:29:41;;;;;;;12.48;6.22;;;;;;;1.20;100.00;97017.75;1024966;28;20175;-48
2021/10/24 01:30:12;;;;;;;13.18;6.15;;;;;;;1.19;100.00;97015.22;1028507;28;20415;-49
2021/10/24 01:30:42;;;;;;;15.52;5.75;;;;;;;1.18;100.00;97016.91;1024656;28;20015;-48
2021/10/24 01:31:13;;;;;;;13.38;6.25;;;;;;;1.16;100.00;97019.53;1028499;28;20015;-48
2021/10/24 01:31:43;;;;;;;12.98;5.85;;;;;;;1.14;100.00;97013.53;1028802;28;20058;-49
2021/10/24 01:32:14;;;;;;;12.80;6.60;;;;;;;1.11;100.00;97018.75;1032694;28;20014;-49
2021/10/24 01:32:45;;;;;;;11.23;5.95;;;;;;;1.12;100.00;97020.44;1036343;28;20056;-47
2021/10/24 01:33:16;;;;;;;13.05;6.20;;;;;;;1.12;100.00;97014.44;1032364;28;20029;-48
2021/10/24 01:33:47;;;;;;;10.82;5.53;;;;;;;1.11;100.00;97017.91;1036785;28;20029;-48
2021/10/24 01:34:17;;;;;;;8.70;5.75;;;;;;;1.12;100.00;97022.19;1036740;28;20041;-49
2021/10/24 01:34:48;;;;;;;11.93;6.32;;;;;;;1.13;100.00;97014.41;1032764;28;20250;-48
2021/10/24 01:35:19;;;;;;;12.07;5.45;;;;;;;1.14;100.00;97016.09;1032511;28;20042;-49
2021/10/24 01:35:52;;;;;;;12.68;5.22;;;;;;;1.12;100.00;97010.13;1028378;28;20031;-48
2021/10/24 01:36:22;;;;;;;10.23;5.80;;;;;;;1.13;100.00;97014.41;1037073;28;20105;-48
2021/10/24 01:36:53;;;;;;;12.05;5.63;;;;;;;1.13;100.00;97006.69;1040846;28;20773;-49
2021/10/24 01:37:34;;;;;;;10.63;5.40;;;;;;;1.19;100.00;97016.06;1036085;28;20022;-48
2021/10/24 01:38:04;;;;;;;13.13;5.55;;;;;;;1.20;100.00;97014.31;1032393;28;20457;-48
2021/10/24 01:38:36;;;;;;;12.07;5.60;;;;;;;1.18;100.00;97006.59;1028839;28;20273;-49
2021/10/24 01:39:07;;;;;;;10.70;5.50;;;;;;;1.20;100.00;97014.31;1032722;28;20037;-47
2021/10/24 01:39:37;;;;;;;11.18;5.32;;;;;;;1.21;100.00;97011.72;1028009;28;20261;-47
2021/10/24 01:40:10;;;;;;;20.50;6.97;;;;;;;1.21;100.00;97016.88;1028395;28;20313;-46
2021/10/24 01:40:40;;;;;;;12.30;5.65;;;;;;;1.22;100.00;97016.00;1031781;28;20504;-47
2021/10/24 01:41:12;;;;;;;9.57;5.93;;;;;;;1.22;100.00;97016.00;1028450;28;20349;-47
2021/10/24 01:41:42;;;;;;;10.25;5.38;;;;;;;1.21;100.00;97013.44;1023703;28;20094;-47
2021/10/24 01:42:13;;;;;;;12.65;5.85;;;;;;;1.23;100.00;97006.53;1027709;28;20282;-49
2021/10/24 01:42:46;;;;;;;11.68;5.78;;;;;;;1.25;100.00;97015.09;1027821;28;20500;-48
2021/10/24 01:43:18;;;;;;;13.32;5.40;;;;;;;1.25;100.00;97013.38;1028251;28;20026;-47
2021/10/24 01:43:49;;;;;;;10.60;5.30;;;;;;;1.26;100.00;97009.91;1028288;28;20254;-48
2021/10/24 01:44:21;;;;;;;9.63;5.63;;;;;;;1.26;100.00;97015.09;1032973;28;20266;-47
2021/10/24 01:44:51;;;;;;;11.07;5.65;;;;;;;1.27;100.00;97009.03;1028540;28;20266;-48
2021/10/24 01:45:23;;;;;;;11.70;5.43;;;;;;;1.29;100.00;97003.84;1032599;28;20656;-48
2021/10/24 01:45:54;;;;;;;14.35;5.60;;;;;;;1.28;100.00;97005.59;1028376;28;20018;-49
2021/10/24 01:46:25;;;;;;;9.57;5.22;;;;;;;1.31;100.00;97009.81;1036215;28;20268;-49
2021/10/24 01:46:56;;;;;;;12.68;5.93;;;;;;;1.30;100.00;97000.41;1028363;28;20349;-49
2021/10/24 01:47:26;;;;;;;12.50;5.10;;;;;;;1.30;100.00;97006.41;1028191;28;20023;-49
2021/10/24 01:47:57;;;;;;;19.90;6.35;;;;;;;1.34;100.00;96999.47;1036667;28;20267;-48
2021/10/24 01:48:28;;;;;;;13.82;5.80;;;;;;;1.36;100.00;96995.13;1032394;28;20018;-49
2021/10/24 01:48:59;;;;;;;16.50;5.18;;;;;;;1.37;100.00;96999.41;1032566;28;20018;-48
2021/10/24 01:49:29;;;;;;;7.50;4.70;;;;;;;1.38;100.00;96995.94;1033309;28;20014;-48
2021/10/24 01:50:00;;;;;;;11.38;5.45;;;;;;;1.39;100.00;96991.63;1036726;28;20435;-48
2021/10/24 01:50:31;;;;;;;12.93;5.57;;;;;;;1.38;100.00;96993.34;1036576;28;20018;-48
2021/10/24 01:51:02;;;;;;;8.38;4.85;;;;;;;1.38;100.00;96992.53;1036607;28;20024;-49
2021/10/24 01:51:33;;;;;;;9.32;5.05;;;;;;;1.39;100.00;96994.19;1036760;28;20018;-47
2021/10/24 01:52:03;;;;;;;12.70;5.38;;;;;;;1.39;100.00;96996.78;1036643;28;20280;-48
2021/10/24 01:52:39;;;;;;;9.52;4.72;;;;;;;1.38;100.00;96988.19;1028394;28;20046;-48
2021/10/24 01:53:10;;;;;;;12.13;6.10;;;;;;;1.38;100.00;96990.78;1024386;29;20023;-49
2021/10/24 01:53:43;;;;;;;9.25;5.00;;;;;;;1.38;100.00;96993.34;1025425;28;20267;-49
2021/10/24 01:54:13;;;;;;;11.00;5.25;;;;;;;1.41;100.00;96995.91;1033742;28;20023;-48
2021/10/24 01:54:44;;;;;;;10.48;5.93;;;;;;;1.44;100.00;96995.81;1036388;28;20256;-48
2021/10/24 01:55:15;;;;;;;9.15;5.03;;;;;;;1.44;100.00;96998.41;1028418;28;20030;-48
2021/10/24 01:55:45;;;;;;;9.85;5.03;;;;;;;1.41;100.00;96988.16;1032545;28;20038;-48
2021/10/24 01:56:17;;;;;;;12.38;5.85;;;;;;;1.41;100.00;96992.44;1028878;28;20026;-48
2021/10/24 01:56:48;;;;;;;8.85;4.70;;;;;;;1.32;100.00;96978.81;1028650;28;20082;-49
2021/10/24 01:57:19;;;;;;;10.70;5.75;;;;;;;1.40;100.00;96995.94;1028968;28;20270;-47
2021/10/24 01:57:51;;;;;;;10.65;5.53;;;;;;;1.40;100.00;96988.19;1029380;28;20254;-49
2021/10/24 01:58:22;;;;;;;12.63;4.82;;;;;;;1.38;100.00;96988.19;1032509;28;20023;-49
2021/10/24 01:58:53;;;;;;;9.07;5.43;;;;;;;1.38;100.00;96989.94;1032671;28;20285;-49
2021/10/24 01:59:24;;;;;;;10.25;5.00;;;;;;;1.36;100.00;96985.63;1037119;28;20372;-49
2021/10/24 01:59:54;;;;;;;12.98;5.88;;;;;;;1.37;100.00;96991.69;1036803;28;20021;-48
2021/10/24 02:00:25;;;;;;;12.57;5.65;;;;;;;1.38;100.00;96988.19;1036834;28;20272;-49
2021/10/24 02:00:56;;;;;;;10.57;5.30;;;;;;;1.39;100.00;96986.47;1040594;28;20030;-49
2021/10/24 02:01:27;;;;;;;8.80;4.88;;;;;;;1.36;100.00;96984.78;1036795;28;20031;-49
2021/10/24 02:01:58;;;;;;;14.57;5.65;;;;;;;1.34;100.00;96987.41;1036611;28;20503;-48
2021/10/24 02:02:29;;;;;;;9.48;5.15;;;;;;;1.34;100.00;96986.56;1032513;28;20033;-48
2021/10/24 02:02:59;;;;;;;11.75;5.53;;;;;;;1.32;100.00;96981.41;1032705;28;20018;-47
2021/10/24 02:03:30;;;;;;;9.77;5.00;;;;;;;1.34;100.00;96987.41;1032546;28;20265;-49
2021/10/24 02:04:02;;;;;;;10.70;5.38;;;;;;;1.34;100.00;96982.22;1033006;28;20029;-48
2021/10/24 02:04:33;;;;;;;12.40;5.18;;;;;;;1.34;100.00;96982.22;1032651;28;20027;-48
2021/10/24 02:05:05;;;;;;;8.45;5.18;;;;;;;1.33;100.00;96980.53;1032995;28;20253;-48
2021/10/24 02:05:36;;;;;;;12.40;5.50;;;;;;;1.36;100.00;96979.63;1028960;28;20030;-48
2021/10/24 02:06:07;;;;;;;11.93;5.38;;;;;;;1.37;100.00;96981.34;1036594;28;20273;-49
2021/10/24 02:06:38;;;;;;;11.63;5.47;;;;;;;1.39;100.00;96982.16;1028584;28;20751;-49
2021/10/24 02:07:08;;;;;;;9.20;5.05;;;;;;;1.40;100.00;96977.84;1032272;28;20262;-50
2021/10/24 02:07:39;;;;;;;11.82;5.75;;;;;;;1.38;100.00;96977.03;1032270;28;20116;-48
2021/10/24 02:08:10;;;;;;;11.73;6.35;;;;;;;1.36;100.00;96977.88;1032704;28;20105;-48
2021/10/24 02:08:40;;;;;;;11.93;5.53;;;;;;;1.35;100.00;96973.63;1032920;28;20026;-49
2021/10/24 02:09:11;;;;;;;10.30;5.05;;;;;;;1.37;100.00;96971.03;1032550;28;20014;-48
2021/10/24 02:09:42;;;;;;;11.73;4.82;;;;;;;1.36;100.00;96980.47;1036796;28;20026;-48
2021/10/24 02:10:14;;;;;;;9.02;5.15;;;;;;;1.37;100.00;96976.19;1036726;28;20256;-49
2021/10/24 02:10:45;;;;;;;10.60;5.47;;;;;;;1.37;100.00;96971.03;1032881;28;20030;-49
2021/10/24 02:11:16;;;;;;;14.10;5.38;;;;;;;1.35;100.00;96978.78;1028827;28;20882;-48
2021/10/24 02:11:47;;;;;;;10.05;4.97;;;;;;;1.37;100.00;96971.03;1033050;28;20034;-50
2021/10/24 02:12:17;;;;;;;9.80;5.13;;;;;;;1.38;100.00;96974.44;1032627;28;20026;-48
2021/10/24 02:12:48;;;;;;;10.25;4.90;;;;;;;1.36;100.00;96969.31;1036699;28;20280;-49
2021/10/24 02:13:19;;;;;;;11.40;4.68;;;;;;;1.34;100.00;96977.06;1040779;28;20510;-49
2021/10/24 02:13:49;;;;;;;12.80;4.80;;;;;;;1.34;100.00;96976.22;1036755;28;20026;-48
2021/10/24 02:14:20;;;;;;;9.48;4.70;;;;;;;1.34;100.00;96969.31;1040764;28;20085;-49
2021/10/24 02:14:51;;;;;;;7.85;4.30;;;;;;;1.33;100.00;96972.81;1040543;28;20031;-48
2021/10/24 02:15:22;;;;;;;14.15;5.15;;;;;;;1.34;100.00;96971.06;1028378;28;20827;-48
2021/10/24 02:15:53;;;;;;;9.88;5.13;;;;;;;1.39;100.00;96973.56;1024362;29;20027;-49
2021/10/24 02:16:23;;;;;;;11.88;5.13;;;;;;;1.41;100.00;96969.22;1020731;29;20032;-49
2021/10/24 02:16:54;;;;;;;12.25;5.28;;;;;;;1.39;100.00;96968.38;1024864;28;20481;-49
2021/10/24 02:17:25;;;;;;;9.57;5.28;;;;;;;1.41;100.00;96966.63;1028716;28;20023;-49
2021/10/24 02:17:56;;;;;;;11.15;4.95;;;;;;;1.40;100.00;96967.53;1028427;28;20401;-49
2021/10/24 02:18:26;;;;;;;14.13;5.35;;;;;;;1.36;100.00;96975.31;1028846;28;20022;-49
2021/10/24 02:18:57;;;;;;;8.15;4.57;;;;;;;1.35;100.00;96965.00;1032637;28;20046;-48
2021/10/24 02:19:27;;;;;;;12.95;5.57;;;;;;;1.33;100.00;96970.22;1032527;28;20105;-48
2021/10/24 02:19:58;;;;;;;9.48;5.00;;;;;;;1.34;100.00;96966.75;1036708;28;20025;-48
2021/10/24 02:20:29;;;;;;;10.10;5.28;;;;;;;1.34;100.00;96968.47;1036687;28;20512;-49
2021/10/24 02:21:00;;;;;;;9.30;4.82;;;;;;;1.35;100.00;96968.47;1036458;28;20078;-48
2021/10/24 02:21:30;;;;;;;11.77;4.90;;;;;;;1.33;100.00;96967.63;1028321;28;20042;-48
2021/10/24 02:22:03;;;;;;;11.32;5.20;;;;;;;1.36;100.00;96969.31;1036506;28;20396;-48
2021/10/24 02:22:34;;;;;;;11.05;5.22;;;;;;;1.34;100.00;96964.16;1040262;28;20464;-51
2021/10/24 02:23:05;;;;;;;7.55;4.50;;;;;;;1.33;100.00;96959.88;1027967;28;20409;-50
2021/10/24 02:23:36;;;;;;;10.15;5.03;;;;;;;1.36;100.00;96964.13;1025053;28;20259;-51
2021/10/24 02:24:07;;;;;;;11.80;5.40;;;;;;;1.39;100.00;96966.69;1028841;28;20094;-52
2021/10/24 02:24:37;;;;;;;12.50;5.22;;;;;;;1.39;100.00;96963.22;1028853;28;20456;-51
2021/10/24 02:25:08;;;;;;;8.82;4.68;;;;;;;1.39;100.00;96964.09;1032574;28;20018;-51